sensor_id;sensor_type;location;lat;lon;timestamp;pressure;altitude;pressure_sealevel;temperature
15062;BMP180;7630;50.306;8.566;2023-02-01T00:02:58;98136.00;;;6.40
15062;BMP180;7630;50.306;8.566;2023-02-01T00:06:59;98136.00;;;7.00
15062;BMP180;7630;50.306;8.566;2023-02-01T00:11:04;98135.00;;;8.00
15062;BMP180;7630;50.306;8.566;2023-02-01T00:15:06;98127.00;;;7.30
15062;BMP180;7630;50.306;8.566;2023-02-01T00:19:11;98131.00;;;7.30
15062;BMP180;7630;50.306;8.566;2023-02-01T00:23:12;98126.00;;;6.70
15062;BMP180;7630;50.306;8.566;2023-02-01T00:27:13;98128.00;;;6.80
15062;BMP180;7630;50.306;8.566;2023-02-01T00:31:16;98108.00;;;7.50
15062;BMP180;7630;50.306;8.566;2023-02-01T00:35:17;98119.00;;;7.70
15062;BMP180;7630;50.306;8.566;2023-02-01T00:39:18;98115.00;;;7.10
15062;BMP180;7630;50.306;8.566;2023-02-01T00:43:19;98117.00;;;7.40
15062;BMP180;7630;50.306;8.566;2023-02-01T00:47:20;98128.00;;;7.10
15062;BMP180;7630;50.306;8.566;2023-02-01T00:51:25;98120.00;;;7.00
15062;BMP180;7630;50.306;8.566;2023-02-01T00:55:26;98103.00;;;6.50
15062;BMP180;7630;50.306;8.566;2023-02-01T00:59:27;98102.00;;;6.90
15062;BMP180;7630;50.306;8.566;2023-02-01T01:03:31;98100.00;;;6.90
15062;BMP180;7630;50.306;8.566;2023-02-01T01:07:35;98105.00;;;7.00
15062;BMP180;7630;50.306;8.566;2023-02-01T01:11:38;98097.00;;;7.40
15062;BMP180;7630;50.306;8.566;2023-02-01T01:15:39;98092.00;;;6.90
15062;BMP180;7630;50.306;8.566;2023-02-01T01:19:41;98111.00;;;6.30
15062;BMP180;7630;50.306;8.566;2023-02-01T01:23:43;98110.00;;;6.30
15062;BMP180;7630;50.306;8.566;2023-02-01T01:27:44;98112.00;;;6.70
15062;BMP180;7630;50.306;8.566;2023-02-01T01:31:45;98096.00;;;7.60
15062;BMP180;7630;50.306;8.566;2023-02-01T01:35:46;98097.00;;;6.90
15062;BMP180;7630;50.306;8.566;2023-02-01T01:39:47;98101.00;;;6.60
15062;BMP180;7630;50.306;8.566;2023-02-01T01:48:21;98090.00;;;5.90
15062;BMP180;7630;50.306;8.566;2023-02-01T01:52:23;98091.00;;;6.50
15062;BMP180;7630;50.306;8.566;2023-02-01T01:56:25;98082.00;;;6.30
15062;BMP180;7630;50.306;8.566;2023-02-01T02:00:26;98067.00;;;6.60
15062;BMP180;7630;50.306;8.566;2023-02-01T02:04:28;98067.00;;;6.40
15062;BMP180;7630;50.306;8.566;2023-02-01T02:08:29;98057.00;;;6.20
15062;BMP180;7630;50.306;8.566;2023-02-01T02:12:31;98044.00;;;6.30
15062;BMP180;7630;50.306;8.566;2023-02-01T02:16:50;98034.00;;;5.90
15062;BMP180;7630;50.306;8.566;2023-02-01T02:30:13;98053.00;;;5.80
15062;BMP180;7630;50.306;8.566;2023-02-01T02:34:28;98085.00;;;5.90
15062;BMP180;7630;50.306;8.566;2023-02-01T02:38:47;98073.00;;;5.90
15062;BMP180;7630;50.306;8.566;2023-02-01T02:42:58;98059.00;;;6.10
15062;BMP180;7630;50.306;8.566;2023-02-01T02:47:23;98059.00;;;6.30
15062;BMP180;7630;50.306;8.566;2023-02-01T02:51:34;98053.00;;;6.50
15062;BMP180;7630;50.306;8.566;2023-02-01T02:55:54;98051.00;;;6.20
15062;BMP180;7630;50.306;8.566;2023-02-01T03:00:19;98034.00;;;5.60
15062;BMP180;7630;50.306;8.566;2023-02-01T03:04:39;98033.00;;;6.40
15062;BMP180;7630;50.306;8.566;2023-02-01T03:08:41;98033.00;;;6.20
15062;BMP180;7630;50.306;8.566;2023-02-01T03:12:44;98009.00;;;5.80
15062;BMP180;7630;50.306;8.566;2023-02-01T03:17:01;98028.00;;;6.20
15062;BMP180;7630;50.306;8.566;2023-02-01T03:21:06;98004.00;;;5.70
15062;BMP180;7630;50.306;8.566;2023-02-01T03:25:13;98012.00;;;6.00
15062;BMP180;7630;50.306;8.566;2023-02-01T03:29:27;98014.00;;;5.90
15062;BMP180;7630;50.306;8.566;2023-02-01T03:33:29;98009.00;;;5.90
15062;BMP180;7630;50.306;8.566;2023-02-01T03:37:31;98016.00;;;6.30
15062;BMP180;7630;50.306;8.566;2023-02-01T03:45:56;98009.00;;;6.50
15062;BMP180;7630;50.306;8.566;2023-02-01T03:49:59;98011.00;;;6.10
15062;BMP180;7630;50.306;8.566;2023-02-01T03:54:03;98000.00;;;6.20
15062;BMP180;7630;50.306;8.566;2023-02-01T03:58:18;97990.00;;;5.80
15062;BMP180;7630;50.306;8.566;2023-02-01T04:02:19;97999.00;;;6.00
15062;BMP180;7630;50.306;8.566;2023-02-01T04:06:23;98013.00;;;6.10
15062;BMP180;7630;50.306;8.566;2023-02-01T04:10:24;98011.00;;;6.40
15062;BMP180;7630;50.306;8.566;2023-02-01T04:14:26;98017.00;;;6.30
15062;BMP180;7630;50.306;8.566;2023-02-01T04:18:27;98033.00;;;6.00
15062;BMP180;7630;50.306;8.566;2023-02-01T04:22:29;98033.00;;;6.00
15062;BMP180;7630;50.306;8.566;2023-02-01T04:26:30;98045.00;;;5.90
15062;BMP180;7630;50.306;8.566;2023-02-01T04:30:31;98032.00;;;6.20
15062;BMP180;7630;50.306;8.566;2023-02-01T04:34:32;98018.00;;;6.00
15062;BMP180;7630;50.306;8.566;2023-02-01T04:38:33;98022.00;;;6.10
15062;BMP180;7630;50.306;8.566;2023-02-01T04:42:34;98015.00;;;6.60
15062;BMP180;7630;50.306;8.566;2023-02-01T04:46:35;98026.00;;;6.30
15062;BMP180;7630;50.306;8.566;2023-02-01T04:50:36;98013.00;;;6.10
15062;BMP180;7630;50.306;8.566;2023-02-01T04:54:37;98005.00;;;6.10
15062;BMP180;7630;50.306;8.566;2023-02-01T04:58:38;98010.00;;;6.20
15062;BMP180;7630;50.306;8.566;2023-02-01T05:02:39;98011.00;;;6.60
15062;BMP180;7630;50.306;8.566;2023-02-01T05:06:40;98008.00;;;6.10
15062;BMP180;7630;50.306;8.566;2023-02-01T05:10:41;97990.00;;;6.10
15062;BMP180;7630;50.306;8.566;2023-02-01T05:14:42;98002.00;;;6.30
15062;BMP180;7630;50.306;8.566;2023-02-01T05:18:44;98013.00;;;6.00
15062;BMP180;7630;50.306;8.566;2023-02-01T05:22:45;98024.00;;;6.60
15062;BMP180;7630;50.306;8.566;2023-02-01T05:26:47;98001.00;;;6.20
15062;BMP180;7630;50.306;8.566;2023-02-01T05:30:48;98000.00;;;5.70
15062;BMP180;7630;50.306;8.566;2023-02-01T05:34:50;97995.00;;;5.80
15062;BMP180;7630;50.306;8.566;2023-02-01T05:38:51;97996.00;;;5.60
15062;BMP180;7630;50.306;8.566;2023-02-01T05:42:52;97987.00;;;5.60
15062;BMP180;7630;50.306;8.566;2023-02-01T05:46:53;98005.00;;;5.70
15062;BMP180;7630;50.306;8.566;2023-02-01T05:50:54;97996.00;;;5.80
15062;BMP180;7630;50.306;8.566;2023-02-01T05:54:55;97986.00;;;5.40
15062;BMP180;7630;50.306;8.566;2023-02-01T05:58:56;97982.00;;;5.10
15062;BMP180;7630;50.306;8.566;2023-02-01T06:02:58;97990.00;;;5.70
15062;BMP180;7630;50.306;8.566;2023-02-01T06:06:59;97986.00;;;5.90
15062;BMP180;7630;50.306;8.566;2023-02-01T06:11:04;97981.00;;;5.60
15062;BMP180;7630;50.306;8.566;2023-02-01T06:15:06;97993.00;;;5.40
15062;BMP180;7630;50.306;8.566;2023-02-01T06:19:07;97996.00;;;5.90
15062;BMP180;7630;50.306;8.566;2023-02-01T06:23:09;97999.00;;;5.20
15062;BMP180;7630;50.306;8.566;2023-02-01T06:27:10;97970.00;;;5.10
15062;BMP180;7630;50.306;8.566;2023-02-01T06:31:12;97983.00;;;5.60
15062;BMP180;7630;50.306;8.566;2023-02-01T06:35:13;98003.00;;;5.50
15062;BMP180;7630;50.306;8.566;2023-02-01T06:39:17;97991.00;;;5.30
15062;BMP180;7630;50.306;8.566;2023-02-01T06:43:18;98001.00;;;5.60
15062;BMP180;7630;50.306;8.566;2023-02-01T06:47:19;98029.00;;;5.30
15062;BMP180;7630;50.306;8.566;2023-02-01T06:51:23;98004.00;;;4.80
15062;BMP180;7630;50.306;8.566;2023-02-01T06:55:24;97995.00;;;5.10
15062;BMP180;7630;50.306;8.566;2023-02-01T06:59:26;97985.00;;;4.80
15062;BMP180;7630;50.306;8.566;2023-02-01T07:03:27;97979.00;;;5.20
15062;BMP180;7630;50.306;8.566;2023-02-01T07:07:28;97985.00;;;5.00
15062;BMP180;7630;50.306;8.566;2023-02-01T07:11:29;97971.00;;;4.60
15062;BMP180;7630;50.306;8.566;2023-02-01T07:15:31;97971.00;;;5.10
15062;BMP180;7630;50.306;8.566;2023-02-01T07:19:32;97994.00;;;5.60
15062;BMP180;7630;50.306;8.566;2023-02-01T07:23:34;98008.00;;;5.40
15062;BMP180;7630;50.306;8.566;2023-02-01T07:27:35;98005.00;;;5.70
15062;BMP180;7630;50.306;8.566;2023-02-01T07:31:36;98016.00;;;5.80
15062;BMP180;7630;50.306;8.566;2023-02-01T07:35:37;98027.00;;;6.20
15062;BMP180;7630;50.306;8.566;2023-02-01T07:39:38;98040.00;;;6.30
15062;BMP180;7630;50.306;8.566;2023-02-01T07:43:39;98045.00;;;5.90
15062;BMP180;7630;50.306;8.566;2023-02-01T07:47:40;98044.00;;;6.50
15062;BMP180;7630;50.306;8.566;2023-02-01T07:51:45;98042.00;;;5.60
15062;BMP180;7630;50.306;8.566;2023-02-01T07:55:46;98037.00;;;5.60
15062;BMP180;7630;50.306;8.566;2023-02-01T07:59:48;98043.00;;;5.50
15062;BMP180;7630;50.306;8.566;2023-02-01T08:04:14;98045.00;;;5.40
15062;BMP180;7630;50.306;8.566;2023-02-01T08:08:13;98052.00;;;5.50
15062;BMP180;7630;50.306;8.566;2023-02-01T08:12:14;98048.00;;;6.10
15062;BMP180;7630;50.306;8.566;2023-02-01T08:16:17;98060.00;;;6.00
15062;BMP180;7630;50.306;8.566;2023-02-01T08:20:19;98075.00;;;6.10
15062;BMP180;7630;50.306;8.566;2023-02-01T08:24:23;98070.00;;;6.20
15062;BMP180;7630;50.306;8.566;2023-02-01T08:28:24;98060.00;;;6.10
15062;BMP180;7630;50.306;8.566;2023-02-01T08:32:25;98052.00;;;6.10
15062;BMP180;7630;50.306;8.566;2023-02-01T08:36:29;98066.00;;;5.50
15062;BMP180;7630;50.306;8.566;2023-02-01T08:40:31;98065.00;;;5.80
15062;BMP180;7630;50.306;8.566;2023-02-01T08:44:32;98052.00;;;5.90
15062;BMP180;7630;50.306;8.566;2023-02-01T08:48:34;98070.00;;;6.00
15062;BMP180;7630;50.306;8.566;2023-02-01T08:52:35;98065.00;;;5.60
15062;BMP180;7630;50.306;8.566;2023-02-01T08:56:38;98070.00;;;5.60
15062;BMP180;7630;50.306;8.566;2023-02-01T09:00:40;98081.00;;;6.10
15062;BMP180;7630;50.306;8.566;2023-02-01T09:04:41;98066.00;;;5.90
15062;BMP180;7630;50.306;8.566;2023-02-01T09:08:44;98058.00;;;5.90
15062;BMP180;7630;50.306;8.566;2023-02-01T09:12:45;98051.00;;;6.30
15062;BMP180;7630;50.306;8.566;2023-02-01T09:16:46;98051.00;;;6.20
15062;BMP180;7630;50.306;8.566;2023-02-01T09:20:47;98064.00;;;5.90
15062;BMP180;7630;50.306;8.566;2023-02-01T09:24:48;98060.00;;;5.40
15062;BMP180;7630;50.306;8.566;2023-02-01T09:28:50;98072.00;;;5.40
15062;BMP180;7630;50.306;8.566;2023-02-01T09:32:51;98071.00;;;5.50
15062;BMP180;7630;50.306;8.566;2023-02-01T09:36:52;98084.00;;;5.90
15062;BMP180;7630;50.306;8.566;2023-02-01T09:40:54;98086.00;;;5.80
15062;BMP180;7630;50.306;8.566;2023-02-01T09:49:33;98097.00;;;6.20
15062;BMP180;7630;50.306;8.566;2023-02-01T09:53:42;98078.00;;;5.90
15062;BMP180;7630;50.306;8.566;2023-02-01T09:57:51;98086.00;;;6.00
15062;BMP180;7630;50.306;8.566;2023-02-01T10:01:52;98063.00;;;5.80
15062;BMP180;7630;50.306;8.566;2023-02-01T10:10:20;98063.00;;;6.30
15062;BMP180;7630;50.306;8.566;2023-02-01T10:14:46;98067.00;;;6.50
15062;BMP180;7630;50.306;8.566;2023-02-01T10:18:59;98063.00;;;6.40
15062;BMP180;7630;50.306;8.566;2023-02-01T10:27:32;98039.00;;;6.70
15062;BMP180;7630;50.306;8.566;2023-02-01T10:31:31;98029.00;;;6.40
15062;BMP180;7630;50.306;8.566;2023-02-01T10:35:35;98045.00;;;6.40
15062;BMP180;7630;50.306;8.566;2023-02-01T10:39:37;98052.00;;;6.20
15062;BMP180;7630;50.306;8.566;2023-02-01T10:43:38;98037.00;;;5.90
15062;BMP180;7630;50.306;8.566;2023-02-01T10:47:41;98013.00;;;6.10
15062;BMP180;7630;50.306;8.566;2023-02-01T10:51:46;98031.00;;;6.00
15062;BMP180;7630;50.306;8.566;2023-02-01T10:55:49;98013.00;;;5.50
15062;BMP180;7630;50.306;8.566;2023-02-01T10:59:51;98014.00;;;6.10
15062;BMP180;7630;50.306;8.566;2023-02-01T11:07:57;98013.00;;;6.40
15062;BMP180;7630;50.306;8.566;2023-02-01T11:12:00;98007.00;;;6.50
15062;BMP180;7630;50.306;8.566;2023-02-01T11:16:04;98016.00;;;6.10
15062;BMP180;7630;50.306;8.566;2023-02-01T11:20:15;98016.00;;;6.10
15062;BMP180;7630;50.306;8.566;2023-02-01T11:24:21;98017.00;;;6.20
15062;BMP180;7630;50.306;8.566;2023-02-01T11:28:24;98001.00;;;5.70
15062;BMP180;7630;50.306;8.566;2023-02-01T11:32:26;98006.00;;;6.60
15062;BMP180;7630;50.306;8.566;2023-02-01T11:36:30;98012.00;;;6.30
15062;BMP180;7630;50.306;8.566;2023-02-01T11:40:36;98008.00;;;6.50
15062;BMP180;7630;50.306;8.566;2023-02-01T11:44:39;98000.00;;;6.80
15062;BMP180;7630;50.306;8.566;2023-02-01T11:48:41;97993.00;;;6.20
15062;BMP180;7630;50.306;8.566;2023-02-01T11:57:08;97997.00;;;6.50
15062;BMP180;7630;50.306;8.566;2023-02-01T12:18:52;97978.00;;;6.80
15062;BMP180;7630;50.306;8.566;2023-02-01T12:32:25;97972.00;;;7.20
15062;BMP180;7630;50.306;8.566;2023-02-01T12:40:18;97964.00;;;6.60
15062;BMP180;7630;50.306;8.566;2023-02-01T12:53:12;97948.00;;;6.40
15062;BMP180;7630;50.306;8.566;2023-02-01T12:57:15;97947.00;;;6.60
15062;BMP180;7630;50.306;8.566;2023-02-01T13:01:26;97941.00;;;6.70
15062;BMP180;7630;50.306;8.566;2023-02-01T13:05:34;97943.00;;;6.60
15062;BMP180;7630;50.306;8.566;2023-02-01T13:09:51;97936.00;;;6.60
15062;BMP180;7630;50.306;8.566;2023-02-01T13:18:11;97946.00;;;6.30
15062;BMP180;7630;50.306;8.566;2023-02-01T13:22:37;97944.00;;;6.40
15062;BMP180;7630;50.306;8.566;2023-02-01T13:26:38;97952.00;;;6.60
15062;BMP180;7630;50.306;8.566;2023-02-01T13:35:29;97944.00;;;6.70
15062;BMP180;7630;50.306;8.566;2023-02-01T13:39:50;97933.00;;;6.60
15062;BMP180;7630;50.306;8.566;2023-02-01T13:43:53;97927.00;;;6.60
15062;BMP180;7630;50.306;8.566;2023-02-01T13:48:00;97895.00;;;6.30
15062;BMP180;7630;50.306;8.566;2023-02-01T13:52:02;97912.00;;;6.10
15062;BMP180;7630;50.306;8.566;2023-02-01T14:00:33;97909.00;;;6.60
15062;BMP180;7630;50.306;8.566;2023-02-01T14:04:48;97900.00;;;6.20
15062;BMP180;7630;50.306;8.566;2023-02-01T14:17:33;97906.00;;;7.00
15062;BMP180;7630;50.306;8.566;2023-02-01T14:21:50;97919.00;;;7.10
15062;BMP180;7630;50.306;8.566;2023-02-01T14:26:00;97920.00;;;6.90
15062;BMP180;7630;50.306;8.566;2023-02-01T14:29:56;97913.00;;;7.20
15062;BMP180;7630;50.306;8.566;2023-02-01T14:34:02;97915.00;;;6.90
15062;BMP180;7630;50.306;8.566;2023-02-01T14:38:03;97923.00;;;6.70
15062;BMP180;7630;50.306;8.566;2023-02-01T14:42:18;97923.00;;;7.20
15062;BMP180;7630;50.306;8.566;2023-02-01T14:46:19;97922.00;;;7.30
15062;BMP180;7630;50.306;8.566;2023-02-01T14:54:39;97926.00;;;7.00
15062;BMP180;7630;50.306;8.566;2023-02-01T15:02:49;97944.00;;;6.30
15062;BMP180;7630;50.306;8.566;2023-02-01T15:06:55;97947.00;;;6.00
15062;BMP180;7630;50.306;8.566;2023-02-01T15:11:00;97936.00;;;5.70
15062;BMP180;7630;50.306;8.566;2023-02-01T15:19:17;97938.00;;;5.80
15062;BMP180;7630;50.306;8.566;2023-02-01T15:23:18;97950.00;;;5.80
15062;BMP180;7630;50.306;8.566;2023-02-01T15:27:20;97957.00;;;5.50
15062;BMP180;7630;50.306;8.566;2023-02-01T15:31:32;97967.00;;;5.20
15062;BMP180;7630;50.306;8.566;2023-02-01T15:40:18;97958.00;;;5.60
15062;BMP180;7630;50.306;8.566;2023-02-01T15:44:22;97960.00;;;5.60
15062;BMP180;7630;50.306;8.566;2023-02-01T15:48:26;97979.00;;;5.50
15062;BMP180;7630;50.306;8.566;2023-02-01T15:52:35;97974.00;;;5.30
15062;BMP180;7630;50.306;8.566;2023-02-01T15:56:41;97963.00;;;5.50
15062;BMP180;7630;50.306;8.566;2023-02-01T16:00:45;97971.00;;;5.50
15062;BMP180;7630;50.306;8.566;2023-02-01T16:04:47;97964.00;;;5.30
15062;BMP180;7630;50.306;8.566;2023-02-01T16:09:03;97951.00;;;5.20
15062;BMP180;7630;50.306;8.566;2023-02-01T16:13:04;97958.00;;;5.50
15062;BMP180;7630;50.306;8.566;2023-02-01T16:17:07;97964.00;;;5.70
15062;BMP180;7630;50.306;8.566;2023-02-01T16:21:09;97967.00;;;5.60
15062;BMP180;7630;50.306;8.566;2023-02-01T16:25:12;97970.00;;;5.50
15062;BMP180;7630;50.306;8.566;2023-02-01T16:29:15;97978.00;;;5.40
15062;BMP180;7630;50.306;8.566;2023-02-01T16:33:19;97970.00;;;5.70
15062;BMP180;7630;50.306;8.566;2023-02-01T16:37:24;97979.00;;;5.70
15062;BMP180;7630;50.306;8.566;2023-02-01T16:41:26;97966.00;;;5.90
15062;BMP180;7630;50.306;8.566;2023-02-01T16:45:28;97966.00;;;5.70
15062;BMP180;7630;50.306;8.566;2023-02-01T16:49:31;97947.00;;;6.00
15062;BMP180;7630;50.306;8.566;2023-02-01T16:53:33;97957.00;;;6.30
15062;BMP180;7630;50.306;8.566;2023-02-01T16:57:35;97956.00;;;6.30
15062;BMP180;7630;50.306;8.566;2023-02-01T17:01:37;97958.00;;;6.30
15062;BMP180;7630;50.306;8.566;2023-02-01T17:05:38;97966.00;;;6.00
15062;BMP180;7630;50.306;8.566;2023-02-01T17:09:39;97983.00;;;6.10
15062;BMP180;7630;50.306;8.566;2023-02-01T17:13:41;97980.00;;;6.00
15062;BMP180;7630;50.306;8.566;2023-02-01T17:17:42;97981.00;;;5.60
15062;BMP180;7630;50.306;8.566;2023-02-01T17:21:47;97991.00;;;5.80
15062;BMP180;7630;50.306;8.566;2023-02-01T17:25:50;97992.00;;;6.20
15062;BMP180;7630;50.306;8.566;2023-02-01T17:29:51;97995.00;;;5.70
15062;BMP180;7630;50.306;8.566;2023-02-01T17:33:54;97990.00;;;5.50
15062;BMP180;7630;50.306;8.566;2023-02-01T17:37:55;97992.00;;;5.40
15062;BMP180;7630;50.306;8.566;2023-02-01T17:41:57;97982.00;;;5.40
15062;BMP180;7630;50.306;8.566;2023-02-01T17:50:04;97986.00;;;5.40
15062;BMP180;7630;50.306;8.566;2023-02-01T17:54:06;97995.00;;;5.10
15062;BMP180;7630;50.306;8.566;2023-02-01T17:58:10;97993.00;;;5.00
15062;BMP180;7630;50.306;8.566;2023-02-01T18:02:18;98006.00;;;5.30
15062;BMP180;7630;50.306;8.566;2023-02-01T18:06:24;97989.00;;;5.00
15062;BMP180;7630;50.306;8.566;2023-02-01T18:10:26;97987.00;;;5.10
15062;BMP180;7630;50.306;8.566;2023-02-01T18:14:27;98000.00;;;5.10
15062;BMP180;7630;50.306;8.566;2023-02-01T18:18:29;97988.00;;;4.90
15062;BMP180;7630;50.306;8.566;2023-02-01T18:22:32;97982.00;;;4.70
15062;BMP180;7630;50.306;8.566;2023-02-01T18:26:33;97989.00;;;4.80
15062;BMP180;7630;50.306;8.566;2023-02-01T18:30:34;97994.00;;;5.10
15062;BMP180;7630;50.306;8.566;2023-02-01T18:34:36;97988.00;;;4.50
15062;BMP180;7630;50.306;8.566;2023-02-01T18:38:37;98004.00;;;5.00
15062;BMP180;7630;50.306;8.566;2023-02-01T18:42:38;98007.00;;;5.50
15062;BMP180;7630;50.306;8.566;2023-02-01T18:46:39;98024.00;;;5.20
15062;BMP180;7630;50.306;8.566;2023-02-01T18:50:42;98011.00;;;5.20
15062;BMP180;7630;50.306;8.566;2023-02-01T18:54:44;98008.00;;;5.20
15062;BMP180;7630;50.306;8.566;2023-02-01T18:58:47;98001.00;;;4.80
15062;BMP180;7630;50.306;8.566;2023-02-01T19:02:48;98013.00;;;5.00
15062;BMP180;7630;50.306;8.566;2023-02-01T19:06:50;98007.00;;;4.90
15062;BMP180;7630;50.306;8.566;2023-02-01T19:10:51;97993.00;;;4.80
15062;BMP180;7630;50.306;8.566;2023-02-01T19:14:52;98002.00;;;5.10
15062;BMP180;7630;50.306;8.566;2023-02-01T19:18:53;97985.00;;;5.40
15062;BMP180;7630;50.306;8.566;2023-02-01T19:22:54;98017.00;;;5.70
15062;BMP180;7630;50.306;8.566;2023-02-01T19:26:56;98007.00;;;5.90
15062;BMP180;7630;50.306;8.566;2023-02-01T19:31:01;98026.00;;;5.80
15062;BMP180;7630;50.306;8.566;2023-02-01T19:35:04;98017.00;;;5.30
15062;BMP180;7630;50.306;8.566;2023-02-01T19:39:06;98005.00;;;5.10
15062;BMP180;7630;50.306;8.566;2023-02-01T19:43:07;98013.00;;;5.70
15062;BMP180;7630;50.306;8.566;2023-02-01T19:47:08;98010.00;;;5.20
15062;BMP180;7630;50.306;8.566;2023-02-01T19:51:10;98000.00;;;5.70
15062;BMP180;7630;50.306;8.566;2023-02-01T19:55:12;98011.00;;;5.60
15062;BMP180;7630;50.306;8.566;2023-02-01T19:59:14;97984.00;;;5.20
15062;BMP180;7630;50.306;8.566;2023-02-01T20:03:15;97997.00;;;5.60
15062;BMP180;7630;50.306;8.566;2023-02-01T20:07:16;97990.00;;;5.50
15062;BMP180;7630;50.306;8.566;2023-02-01T20:11:18;97992.00;;;5.40
15062;BMP180;7630;50.306;8.566;2023-02-01T20:15:19;97978.00;;;5.60
15062;BMP180;7630;50.306;8.566;2023-02-01T20:19:23;97977.00;;;5.50
15062;BMP180;7630;50.306;8.566;2023-02-01T20:23:25;97976.00;;;5.40
15062;BMP180;7630;50.306;8.566;2023-02-01T20:27:26;97999.00;;;5.80
15062;BMP180;7630;50.306;8.566;2023-02-01T20:31:28;97995.00;;;6.00
15062;BMP180;7630;50.306;8.566;2023-02-01T20:35:29;97998.00;;;6.40
15062;BMP180;7630;50.306;8.566;2023-02-01T20:39:30;97993.00;;;5.70
15062;BMP180;7630;50.306;8.566;2023-02-01T20:43:32;98000.00;;;6.20
15062;BMP180;7630;50.306;8.566;2023-02-01T20:47:34;97997.00;;;6.00
15062;BMP180;7630;50.306;8.566;2023-02-01T20:51:35;97979.00;;;5.50
15062;BMP180;7630;50.306;8.566;2023-02-01T20:55:36;97969.00;;;6.10
15062;BMP180;7630;50.306;8.566;2023-02-01T20:59:38;97997.00;;;6.10
15062;BMP180;7630;50.306;8.566;2023-02-01T21:03:42;97986.00;;;5.60
15062;BMP180;7630;50.306;8.566;2023-02-01T21:07:43;97973.00;;;5.40
15062;BMP180;7630;50.306;8.566;2023-02-01T21:11:44;97983.00;;;6.00
15062;BMP180;7630;50.306;8.566;2023-02-01T21:15:46;97971.00;;;5.70
15062;BMP180;7630;50.306;8.566;2023-02-01T21:19:47;97977.00;;;5.50
15062;BMP180;7630;50.306;8.566;2023-02-01T21:23:58;97973.00;;;5.50
15062;BMP180;7630;50.306;8.566;2023-02-01T21:27:57;97980.00;;;5.40
15062;BMP180;7630;50.306;8.566;2023-02-01T21:31:58;97989.00;;;6.00
15062;BMP180;7630;50.306;8.566;2023-02-01T21:35:59;97986.00;;;5.60
15062;BMP180;7630;50.306;8.566;2023-02-01T21:40:01;97983.00;;;5.60
15062;BMP180;7630;50.306;8.566;2023-02-01T21:44:02;97988.00;;;5.80
15062;BMP180;7630;50.306;8.566;2023-02-01T21:48:03;97989.00;;;6.00
15062;BMP180;7630;50.306;8.566;2023-02-01T21:52:07;97983.00;;;5.70
15062;BMP180;7630;50.306;8.566;2023-02-01T21:56:08;97983.00;;;5.50
15062;BMP180;7630;50.306;8.566;2023-02-01T22:00:10;97989.00;;;5.60
15062;BMP180;7630;50.306;8.566;2023-02-01T22:04:13;97978.00;;;5.80
15062;BMP180;7630;50.306;8.566;2023-02-01T22:08:14;97978.00;;;5.50
15062;BMP180;7630;50.306;8.566;2023-02-01T22:12:16;98027.00;;;6.00
15062;BMP180;7630;50.306;8.566;2023-02-01T22:16:17;97984.00;;;6.60
15062;BMP180;7630;50.306;8.566;2023-02-01T22:20:20;97998.00;;;6.10
15062;BMP180;7630;50.306;8.566;2023-02-01T22:24:22;98004.00;;;5.90
15062;BMP180;7630;50.306;8.566;2023-02-01T22:28:23;98010.00;;;6.20
15062;BMP180;7630;50.306;8.566;2023-02-01T22:32:26;98011.00;;;5.90
15062;BMP180;7630;50.306;8.566;2023-02-01T22:36:27;98013.00;;;5.70
15062;BMP180;7630;50.306;8.566;2023-02-01T22:40:28;98010.00;;;6.30
15062;BMP180;7630;50.306;8.566;2023-02-01T22:44:29;98005.00;;;5.70
15062;BMP180;7630;50.306;8.566;2023-02-01T22:48:33;98015.00;;;5.90
15062;BMP180;7630;50.306;8.566;2023-02-01T22:52:33;98039.00;;;6.50
15062;BMP180;7630;50.306;8.566;2023-02-01T22:56:36;98032.00;;;6.20
15062;BMP180;7630;50.306;8.566;2023-02-01T23:00:37;98042.00;;;6.40
15062;BMP180;7630;50.306;8.566;2023-02-01T23:04:38;98036.00;;;6.60
15062;BMP180;7630;50.306;8.566;2023-02-01T23:08:39;98032.00;;;6.40
15062;BMP180;7630;50.306;8.566;2023-02-01T23:12:40;98044.00;;;6.40
15062;BMP180;7630;50.306;8.566;2023-02-01T23:16:45;98037.00;;;6.80
15062;BMP180;7630;50.306;8.566;2023-02-01T23:20:47;98016.00;;;6.10
15062;BMP180;7630;50.306;8.566;2023-02-01T23:24:48;98047.00;;;6.00
15062;BMP180;7630;50.306;8.566;2023-02-01T23:28:50;98040.00;;;6.50
15062;BMP180;7630;50.306;8.566;2023-02-01T23:32:53;98056.00;;;6.40
15062;BMP180;7630;50.306;8.566;2023-02-01T23:36:54;98043.00;;;6.20
15062;BMP180;7630;50.306;8.566;2023-02-01T23:40:58;98038.00;;;6.20
15062;BMP180;7630;50.306;8.566;2023-02-01T23:44:59;98022.00;;;6.60
15062;BMP180;7630;50.306;8.566;2023-02-01T23:49:01;98039.00;;;6.20
15062;BMP180;7630;50.306;8.566;2023-02-01T23:53:02;98038.00;;;6.30
15062;BMP180;7630;50.306;8.566;2023-02-01T23:57:03;98048.00;;;6.70
